Time;durP1;ratioP1;P1;durP2;ratioP2;P2;SDS_P1;SDS_P2;PMS_P1;PMS_P2;Temp;Humidity;BMP_temperature;BMP_pressure;BME280_temperature;BME280_humidity;BME280_pressure;Samples;Min_cycle;Max_cycle;Signal;HPM_P1;HPM_P2
2023/04/30 00:02:04;;;;;;;12.40;3.40;;;;;;;;;;4998498;28;20035;-69
2023/04/30 00:04:30;;;;;;;10.52;3.10;;;;;;;;;;5018447;28;20038;-69
2023/04/30 00:06:56;;;;;;;11.98;2.70;;;;;;;;;;5022034;28;20090;-68
2023/04/30 00:09:22;;;;;;;11.45;3.20;;;;;;;;;;5018743;28;20037;-68
2023/04/30 00:11:48;;;;;;;10.07;3.17;;;;;;;;;;5012203;28;20430;-70
2023/04/30 00:14:15;;;;;;;12.52;3.30;;;;;;;;;;5002232;28;20109;-68
2023/04/30 00:16:41;;;;;;;10.70;2.88;;;;;;;;;;5000366;28;20387;-68
2023/04/30 00:19:08;;;;;;;10.73;3.30;;;;;;;;;;5015545;28;20044;-69
2023/04/30 00:21:34;;;;;;;9.75;2.70;;;;;;;;;;5000162;28;20075;-68
2023/04/30 00:24:00;;;;;;;10.45;2.97;;;;;;;;;;5013701;28;20018;-68
2023/04/30 00:26:26;;;;;;;10.18;2.85;;;;;;;;;;5020767;28;20037;-68
2023/04/30 00:28:52;;;;;;;9.63;2.90;;;;;;;;;;5018023;28;20074;-69
2023/04/30 00:31:18;;;;;;;11.38;3.10;;;;;;;;;;5015145;28;20108;-68
2023/04/30 00:33:45;;;;;;;10.85;2.80;;;;;;;;;;5015667;28;20701;-70
2023/04/30 00:36:11;;;;;;;11.45;3.13;;;;;;;;;;5021068;28;20033;-68
2023/04/30 00:38:37;;;;;;;9.32;2.42;;;;;;;;;;5014082;28;20037;-68
2023/04/30 00:41:04;;;;;;;9.52;2.83;;;;;;;;;;5014294;28;20374;-68
2023/04/30 00:43:30;;;;;;;10.55;2.90;;;;;;;;;;5013068;28;20025;-67
2023/04/30 00:45:57;;;;;;;10.52;2.88;;;;;;;;;;5015907;28;20033;-68
2023/04/30 00:48:25;;;;;;;12.52;2.72;;;;;;;;;;5020991;28;20619;-69
2023/04/30 00:50:51;;;;;;;10.68;2.75;;;;;;;;;;4999725;28;20410;-69
2023/04/30 00:53:17;;;;;;;10.13;2.95;;;;;;;;;;5016462;28;20509;-68
2023/04/30 00:55:44;;;;;;;10.90;2.78;;;;;;;;;;4999196;28;20051;-68
2023/04/30 00:58:10;;;;;;;8.25;2.58;;;;;;;;;;5017065;28;20033;-68
2023/04/30 01:00:36;;;;;;;10.80;3.03;;;;;;;;;;5012756;28;20298;-69
2023/04/30 01:03:02;;;;;;;8.35;2.53;;;;;;;;;;5021805;28;20028;-68
2023/04/30 01:05:28;;;;;;;8.45;2.40;;;;;;;;;;5000932;28;20032;-68
2023/04/30 01:07:55;;;;;;;8.68;2.20;;;;;;;;;;5009597;28;20037;-68
2023/04/30 01:10:26;;;;;;;8.15;2.40;;;;;;;;;;5018918;28;20353;-68
2023/04/30 01:12:52;;;;;;;9.45;2.30;;;;;;;;;;5012997;28;20552;-68
2023/04/30 01:15:18;;;;;;;10.45;2.65;;;;;;;;;;5004932;28;20103;-68
2023/04/30 01:17:48;;;;;;;8.93;2.60;;;;;;;;;;5014433;28;20470;-68
2023/04/30 01:20:14;;;;;;;9.77;2.67;;;;;;;;;;5021639;28;20459;-67
2023/04/30 01:22:51;;;;;;;8.98;2.50;;;;;;;;;;4997950;28;20123;-67
2023/04/30 01:25:36;;;;;;;10.18;2.42;;;;;;;;;;5014822;28;20399;-68
2023/04/30 01:28:02;;;;;;;8.73;2.15;;;;;;;;;;5016129;28;20953;-68
2023/04/30 01:30:30;;;;;;;7.35;2.00;;;;;;;;;;5014878;28;20566;-68
2023/04/30 01:32:57;;;;;;;8.30;2.10;;;;;;;;;;5018391;28;20028;-68
2023/04/30 01:35:27;;;;;;;9.00;2.00;;;;;;;;;;5018043;28;20415;-68
2023/04/30 01:38:08;;;;;;;9.05;2.10;;;;;;;;;;5002023;28;20566;-67
2023/04/30 01:40:47;;;;;;;8.38;2.00;;;;;;;;;;5013679;28;20246;-68
2023/04/30 01:43:29;;;;;;;9.75;2.45;;;;;;;;;;5019172;28;20033;-68
2023/04/30 01:46:04;;;;;;;8.18;2.78;;;;;;;;;;5012310;28;20051;-68
2023/04/30 01:48:42;;;;;;;9.00;2.17;;;;;;;;;;5000857;28;20057;-68
2023/04/30 01:51:14;;;;;;;9.35;2.20;;;;;;;;;;5016783;28;20040;-68
2023/04/30 01:53:42;;;;;;;10.27;2.10;;;;;;;;;;5013124;28;20045;-68
2023/04/30 01:56:17;;;;;;;7.38;1.98;;;;;;;;;;5017704;28;20067;-68
2023/04/30 01:58:44;;;;;;;8.50;2.10;;;;;;;;;;5020933;28;20490;-68
2023/04/30 02:01:25;;;;;;;6.93;1.73;;;;;;;;;;5016260;28;20041;-68
2023/04/30 02:03:51;;;;;;;8.30;2.03;;;;;;;;;;5001619;28;20505;-68
2023/04/30 02:06:17;;;;;;;7.25;1.67;;;;;;;;;;5013689;28;20540;-68
2023/04/30 02:08:43;;;;;;;7.50;1.85;;;;;;;;;;5018325;28;20152;-68
2023/04/30 02:11:10;;;;;;;7.45;2.00;;;;;;;;;;5003712;28;20504;-69
2023/04/30 02:13:36;;;;;;;7.18;1.73;;;;;;;;;;5016222;28;21347;-68
2023/04/30 02:16:03;;;;;;;8.85;2.08;;;;;;;;;;5018327;28;20029;-68
2023/04/30 02:18:29;;;;;;;8.85;1.88;;;;;;;;;;5020767;28;20594;-68
2023/04/30 02:20:55;;;;;;;7.65;2.00;;;;;;;;;;5001674;28;20029;-67
2023/04/30 02:23:21;;;;;;;6.30;1.80;;;;;;;;;;5017788;28;20033;-68
2023/04/30 02:25:47;;;;;;;6.60;1.88;;;;;;;;;;5000802;28;21713;-68
2023/04/30 02:28:13;;;;;;;6.50;1.80;;;;;;;;;;5015837;28;20071;-68
2023/04/30 02:30:39;;;;;;;4.97;1.40;;;;;;;;;;5014156;28;20772;-68
2023/04/30 02:33:06;;;;;;;6.93;1.80;;;;;;;;;;5000378;28;20033;-68
2023/04/30 02:35:32;;;;;;;8.50;1.90;;;;;;;;;;5016846;28;20025;-68
2023/04/30 02:37:58;;;;;;;5.28;1.40;;;;;;;;;;5000883;28;20115;-68
2023/04/30 02:40:25;;;;;;;5.40;1.60;;;;;;;;;;5018258;28;20036;-68
2023/04/30 02:42:53;;;;;;;7.13;1.60;;;;;;;;;;5015580;28;20025;-70
2023/04/30 02:45:20;;;;;;;5.97;1.48;;;;;;;;;;5017736;28;20021;-68
2023/04/30 02:47:46;;;;;;;6.78;1.60;;;;;;;;;;5016345;28;20043;-68
2023/04/30 02:50:12;;;;;;;6.40;1.65;;;;;;;;;;5024232;28;20510;-68
2023/04/30 02:52:38;;;;;;;3.92;1.20;;;;;;;;;;4998705;28;20045;-67
2023/04/30 02:55:05;;;;;;;4.82;1.33;;;;;;;;;;5019381;28;20059;-68
2023/04/30 02:57:31;;;;;;;5.88;1.40;;;;;;;;;;4995983;28;20584;-68
2023/04/30 02:59:57;;;;;;;4.80;1.42;;;;;;;;;;5017338;28;20091;-68
2023/04/30 03:02:23;;;;;;;10.18;1.55;;;;;;;;;;5017797;28;20033;-68
2023/04/30 03:04:49;;;;;;;8.10;1.45;;;;;;;;;;5014285;28;20553;-70
2023/04/30 03:07:15;;;;;;;6.70;1.55;;;;;;;;;;5004262;28;20064;-68
2023/04/30 03:09:43;;;;;;;5.78;1.60;;;;;;;;;;5020680;28;20520;-67
2023/04/30 03:12:09;;;;;;;6.68;1.50;;;;;;;;;;5020932;28;20120;-67
2023/04/30 03:14:35;;;;;;;5.38;1.48;;;;;;;;;;5003153;28;20655;-67
2023/04/30 03:17:01;;;;;;;7.78;1.80;;;;;;;;;;5006474;28;20525;-67
2023/04/30 03:19:27;;;;;;;7.65;2.05;;;;;;;;;;5025300;28;20256;-67
2023/04/30 03:21:54;;;;;;;7.32;1.70;;;;;;;;;;5022366;28;20029;-67
2023/04/30 03:24:20;;;;;;;6.53;1.67;;;;;;;;;;5008500;28;20089;-67
2023/04/30 03:26:46;;;;;;;7.03;1.40;;;;;;;;;;5021646;28;20116;-69
2023/04/30 03:29:12;;;;;;;7.20;1.70;;;;;;;;;;5009597;28;20029;-68
2023/04/30 03:31:39;;;;;;;5.88;1.50;;;;;;;;;;5016328;28;20098;-68
2023/04/30 03:34:05;;;;;;;5.55;1.40;;;;;;;;;;5005922;28;20052;-67
2023/04/30 03:36:32;;;;;;;6.50;1.50;;;;;;;;;;5017539;28;20017;-67
2023/04/30 03:38:58;;;;;;;6.45;1.40;;;;;;;;;;5021110;28;20475;-67
2023/04/30 03:41:24;;;;;;;7.35;1.50;;;;;;;;;;5022965;28;20100;-67
2023/04/30 03:43:50;;;;;;;5.97;1.52;;;;;;;;;;5005716;28;20483;-69
2023/04/30 03:46:16;;;;;;;4.72;1.42;;;;;;;;;;5003872;28;20602;-69
2023/04/30 03:48:43;;;;;;;;;;;;;;;;;;5003525;28;20033;-69
2023/04/30 03:51:09;;;;;;;7.63;1.63;;;;;;;;;;5007602;28;20325;-69
2023/04/30 03:53:35;;;;;;;12.13;1.70;;;;;;;;;;5015962;28;20112;-69
2023/04/30 03:56:02;;;;;;;3.15;1.00;;;;;;;;;;5021787;28;20446;-69
2023/04/30 03:58:29;;;;;;;6.43;1.33;;;;;;;;;;5017666;28;20656;-69
2023/04/30 04:00:55;;;;;;;6.35;1.50;;;;;;;;;;5029134;28;20523;-69
2023/04/30 04:03:22;;;;;;;6.68;1.48;;;;;;;;;;5020568;28;20108;-69
2023/04/30 04:05:48;;;;;;;4.40;1.60;;;;;;;;;;4999941;28;20841;-68
2023/04/30 04:08:14;;;;;;;6.38;1.70;;;;;;;;;;5019684;28;20065;-69
2023/04/30 04:10:40;;;;;;;8.05;1.58;;;;;;;;;;5019223;28;21689;-69
2023/04/30 04:13:07;;;;;;;4.93;1.50;;;;;;;;;;5006242;28;20040;-69
2023/04/30 04:15:33;;;;;;;4.65;1.40;;;;;;;;;;5016407;28;20029;-69
2023/04/30 04:17:59;;;;;;;5.53;1.50;;;;;;;;;;5019241;28;20025;-69
2023/04/30 04:20:26;;;;;;;5.00;1.30;;;;;;;;;;5005338;28;20498;-69
2023/04/30 04:22:52;;;;;;;7.15;1.33;;;;;;;;;;5017341;28;20025;-69
2023/04/30 04:25:19;;;;;;;3.90;1.25;;;;;;;;;;5017895;28;20518;-69
2023/04/30 04:27:45;;;;;;;6.88;1.75;;;;;;;;;;4999958;28;20060;-69
2023/04/30 04:30:12;;;;;;;5.28;1.50;;;;;;;;;;5022211;28;20116;-69
2023/04/30 04:32:47;;;;;;;4.57;1.42;;;;;;;;;;5014272;28;20041;-69
2023/04/30 04:35:14;;;;;;;6.00;1.60;;;;;;;;;;5021876;28;20056;-69
2023/04/30 04:37:41;;;;;;;3.67;1.20;;;;;;;;;;5002939;28;20037;-69
2023/04/30 04:40:07;;;;;;;8.98;1.55;;;;;;;;;;5022426;28;20125;-69
2023/04/30 04:42:33;;;;;;;6.60;1.52;;;;;;;;;;5002351;28;20628;-69
2023/04/30 04:45:00;;;;;;;3.88;1.27;;;;;;;;;;5017508;28;20035;-69
2023/04/30 04:47:27;;;;;;;5.15;1.30;;;;;;;;;;5001816;28;20033;-69
2023/04/30 04:49:53;;;;;;;4.85;1.10;;;;;;;;;;5006043;28;20565;-69
2023/04/30 04:52:19;;;;;;;4.32;1.10;;;;;;;;;;5020950;28;20032;-69
2023/04/30 04:54:45;;;;;;;3.83;1.15;;;;;;;;;;5002016;28;20041;-69
2023/04/30 04:57:11;;;;;;;5.13;1.20;;;;;;;;;;5022109;28;20242;-69
2023/04/30 04:59:37;;;;;;;5.53;1.67;;;;;;;;;;5014425;28;20128;-69
2023/04/30 05:02:04;;;;;;;5.53;1.42;;;;;;;;;;5023024;28;20021;-69
2023/04/30 05:04:30;;;;;;;4.63;1.30;;;;;;;;;;5003630;28;20119;-68
2023/04/30 05:06:56;;;;;;;4.82;1.30;;;;;;;;;;5019189;28;20033;-69
2023/04/30 05:09:22;;;;;;;3.90;1.17;;;;;;;;;;5023747;28;20485;-69
2023/04/30 05:11:48;;;;;;;5.35;1.10;;;;;;;;;;5000826;28;20056;-68
2023/04/30 05:14:14;;;;;;;6.15;1.52;;;;;;;;;;5006568;28;20029;-68
2023/04/30 05:16:41;;;;;;;6.93;1.52;;;;;;;;;;5016118;28;20025;-68
2023/04/30 05:19:08;;;;;;;4.53;1.23;;;;;;;;;;5021240;28;20037;-68
2023/04/30 05:21:35;;;;;;;4.35;1.10;;;;;;;;;;5017519;28;20824;-68
2023/04/30 05:24:01;;;;;;;6.15;1.27;;;;;;;;;;5000164;28;20025;-70
2023/04/30 05:26:27;;;;;;;4.40;1.10;;;;;;;;;;5002736;28;20114;-67
2023/04/30 05:28:53;;;;;;;5.03;1.20;;;;;;;;;;5020499;28;20068;-68
2023/04/30 05:31:19;;;;;;;4.38;1.27;;;;;;;;;;5020792;28;20604;-68
2023/04/30 05:33:46;;;;;;;4.10;1.20;;;;;;;;;;5018427;28;20435;-69
2023/04/30 05:36:12;;;;;;;5.68;1.60;;;;;;;;;;5002576;28;20033;-69
2023/04/30 05:38:38;;;;;;;6.85;1.92;;;;;;;;;;5021557;28;20037;-69
2023/04/30 05:41:04;;;;;;;6.95;1.92;;;;;;;;;;5019078;28;20463;-69
2023/04/30 05:43:30;;;;;;;7.63;2.03;;;;;;;;;;5001930;28;20040;-69
2023/04/30 05:45:56;;;;;;;5.70;1.65;;;;;;;;;;4999037;28;20403;-69
2023/04/30 05:48:23;;;;;;;5.85;1.90;;;;;;;;;;5008427;28;20051;-69
2023/04/30 05:50:49;;;;;;;9.60;2.00;;;;;;;;;;5017581;28;20037;-69
2023/04/30 05:53:15;;;;;;;6.57;1.77;;;;;;;;;;5021883;28;20123;-69
2023/04/30 05:55:41;;;;;;;7.53;1.90;;;;;;;;;;4997519;28;20025;-69
2023/04/30 05:58:07;;;;;;;8.60;2.10;;;;;;;;;;5018834;28;20039;-69
2023/04/30 06:00:34;;;;;;;7.28;2.10;;;;;;;;;;5017806;28;20025;-69
2023/04/30 06:03:01;;;;;;;8.10;1.90;;;;;;;;;;5003950;28;20202;-69
2023/04/30 06:05:27;;;;;;;9.05;2.20;;;;;;;;;;5016710;28;20052;-72
2023/04/30 06:07:53;;;;;;;6.70;2.13;;;;;;;;;;5022914;28;20115;-68
2023/04/30 06:10:20;;;;;;;8.30;1.60;;;;;;;;;;5016125;28;20551;-68
2023/04/30 06:12:46;;;;;;;5.47;1.77;;;;;;;;;;5015867;28;20135;-69
2023/04/30 06:15:12;;;;;;;5.85;1.88;;;;;;;;;;5000145;28;20542;-69
2023/04/30 06:17:38;;;;;;;6.35;1.98;;;;;;;;;;5013535;28;20497;-70
2023/04/30 06:20:05;;;;;;;8.13;2.45;;;;;;;;;;5018430;28;20048;-69
2023/04/30 06:22:32;;;;;;;5.82;2.00;;;;;;;;;;5015619;28;20082;-68
2023/04/30 06:24:58;;;;;;;6.55;2.33;;;;;;;;;;5016731;28;20053;-69
2023/04/30 06:27:28;;;;;;;8.25;2.67;;;;;;;;;;5019637;28;20036;-69
2023/04/30 06:29:54;;;;;;;9.68;3.70;;;;;;;;;;5021259;28;20025;-69
2023/04/30 06:32:20;;;;;;;9.63;4.60;;;;;;;;;;5018744;28;20157;-68
2023/04/30 06:34:47;;;;;;;9.50;4.18;;;;;;;;;;4998076;28;20029;-68
2023/04/30 06:37:13;;;;;;;8.13;2.83;;;;;;;;;;5020475;28;20110;-69
2023/04/30 06:39:39;;;;;;;7.03;2.47;;;;;;;;;;5015777;28;20029;-68
2023/04/30 06:42:05;;;;;;;5.40;1.95;;;;;;;;;;5017176;28;20067;-70
2023/04/30 06:44:31;;;;;;;5.65;1.70;;;;;;;;;;5009621;28;20294;-67
2023/04/30 06:46:58;;;;;;;4.40;1.30;;;;;;;;;;5019819;28;20022;-68
2023/04/30 06:49:24;;;;;;;3.50;1.05;;;;;;;;;;5017236;28;20029;-68
2023/04/30 06:51:50;;;;;;;4.63;1.25;;;;;;;;;;5001046;28;20127;-69
2023/04/30 06:54:16;;;;;;;2.75;0.90;;;;;;;;;;5004819;28;20090;-69
2023/04/30 06:56:43;;;;;;;2.10;0.80;;;;;;;;;;5017911;28;20375;-68
2023/04/30 06:59:10;;;;;;;4.65;1.00;;;;;;;;;;5022706;28;20029;-68
2023/04/30 07:01:36;;;;;;;4.43;1.00;;;;;;;;;;5002449;28;20039;-70
2023/04/30 07:04:02;;;;;;;3.05;0.98;;;;;;;;;;5016947;28;20033;-69
2023/04/30 07:06:29;;;;;;;2.92;0.90;;;;;;;;;;5013376;28;20094;-67
2023/04/30 07:08:56;;;;;;;5.85;1.38;;;;;;;;;;5019088;28;20036;-68
2023/04/30 07:11:22;;;;;;;2.78;1.00;;;;;;;;;;5001725;28;20102;-69
2023/04/30 07:13:48;;;;;;;4.18;0.85;;;;;;;;;;5016955;28;20303;-68
2023/04/30 07:16:15;;;;;;;3.38;1.00;;;;;;;;;;5015519;28;20103;-69
2023/04/30 07:18:42;;;;;;;3.65;1.10;;;;;;;;;;5018545;28;20660;-68
2023/04/30 07:21:08;;;;;;;4.70;1.20;;;;;;;;;;5017958;28;20043;-67
2023/04/30 07:23:34;;;;;;;3.80;1.10;;;;;;;;;;5002247;28;20069;-67
2023/04/30 07:26:00;;;;;;;4.15;0.80;;;;;;;;;;5017582;28;20071;-70
2023/04/30 07:28:27;;;;;;;2.83;0.82;;;;;;;;;;5019617;28;20475;-69
2023/04/30 07:30:53;;;;;;;2.28;0.85;;;;;;;;;;5001147;28;20457;-69
2023/04/30 07:33:19;;;;;;;2.85;0.80;;;;;;;;;;5017724;28;20045;-69
2023/04/30 07:35:45;;;;;;;3.03;0.93;;;;;;;;;;5012937;28;20075;-69
2023/04/30 07:38:11;;;;;;;2.63;0.80;;;;;;;;;;5024203;28;20090;-68
2023/04/30 07:40:37;;;;;;;4.15;0.80;;;;;;;;;;4994676;28;20064;-69
2023/04/30 07:43:04;;;;;;;2.38;0.70;;;;;;;;;;5015782;28;20473;-68
2023/04/30 07:45:30;;;;;;;2.97;0.90;;;;;;;;;;5010601;28;20022;-69
2023/04/30 07:47:57;;;;;;;3.92;1.00;;;;;;;;;;5021166;28;20060;-69
2023/04/30 07:50:23;;;;;;;3.80;1.20;;;;;;;;;;5000490;28;20033;-69
2023/04/30 07:52:49;;;;;;;4.80;1.58;;;;;;;;;;5011003;28;20033;-69
2023/04/30 07:55:15;;;;;;;4.88;1.83;;;;;;;;;;5021647;28;20029;-69
2023/04/30 07:57:42;;;;;;;4.70;1.30;;;;;;;;;;5020895;28;20498;-69
2023/04/30 08:00:08;;;;;;;7.85;3.20;;;;;;;;;;5019218;28;20033;-68
2023/04/30 08:02:36;;;;;;;9.15;4.05;;;;;;;;;;5019110;28;20044;-70
2023/04/30 08:05:02;;;;;;;9.93;5.65;;;;;;;;;;5003411;28;20116;-69
2023/04/30 08:07:29;;;;;;;11.32;6.07;;;;;;;;;;5017454;28;20120;-69
2023/04/30 08:09:55;;;;;;;8.35;3.22;;;;;;;;;;5023917;28;20538;-69
2023/04/30 08:12:21;;;;;;;10.52;4.25;;;;;;;;;;5005276;28;20043;-69
2023/04/30 08:14:47;;;;;;;10.02;4.32;;;;;;;;;;5021274;28;20415;-68
2023/04/30 08:17:13;;;;;;;7.93;3.20;;;;;;;;;;5023149;28;20024;-68
2023/04/30 08:19:40;;;;;;;8.35;3.08;;;;;;;;;;5017325;28;20037;-69
2023/04/30 08:22:06;;;;;;;9.77;4.68;;;;;;;;;;5023247;28;20036;-68
2023/04/30 08:24:32;;;;;;;10.13;5.45;;;;;;;;;;5005033;28;20566;-68
2023/04/30 08:26:59;;;;;;;10.55;3.38;;;;;;;;;;5023443;28;20058;-70
2023/04/30 08:29:26;;;;;;;5.93;2.10;;;;;;;;;;5021789;28;20041;-68
2023/04/30 08:31:52;;;;;;;4.03;1.30;;;;;;;;;;5025196;28;20335;-69
2023/04/30 08:34:18;;;;;;;5.80;1.50;;;;;;;;;;5020669;28;20140;-69
2023/04/30 08:36:45;;;;;;;6.03;1.25;;;;;;;;;;5019620;28;20214;-68
2023/04/30 08:39:11;;;;;;;4.80;1.67;;;;;;;;;;5024607;28;20318;-69
2023/04/30 08:41:39;;;;;;;5.50;1.58;;;;;;;;;;5021151;28;20044;-68
2023/04/30 08:44:05;;;;;;;4.85;1.50;;;;;;;;;;5007284;28;20094;-69
2023/04/30 08:46:32;;;;;;;5.47;1.52;;;;;;;;;;5018217;28;20037;-68
2023/04/30 08:48:58;;;;;;;5.63;1.77;;;;;;;;;;5006832;28;20079;-68
2023/04/30 08:51:26;;;;;;;5.68;1.88;;;;;;;;;;5025552;28;20037;-69
2023/04/30 08:53:54;;;;;;;4.57;1.40;;;;;;;;;;5020651;28;20024;-68
2023/04/30 08:56:21;;;;;;;5.80;1.60;;;;;;;;;;5007835;28;20799;-69
2023/04/30 08:58:47;;;;;;;3.78;1.42;;;;;;;;;;5018951;28;20340;-69
2023/04/30 09:01:13;;;;;;;7.90;2.60;;;;;;;;;;5000656;28;20418;-69
2023/04/30 09:03:39;;;;;;;5.22;1.80;;;;;;;;;;5018954;28;20125;-69
2023/04/30 09:06:05;;;;;;;6.60;1.90;;;;;;;;;;5025256;28;20116;-70
2023/04/30 09:08:42;;;;;;;5.45;1.60;;;;;;;;;;5007007;28;20562;-69
2023/04/30 09:11:23;;;;;;;5.80;1.40;;;;;;;;;;5029406;28;20445;-68
2023/04/30 09:13:51;;;;;;;4.40;1.75;;;;;;;;;;5023612;28;20056;-68
2023/04/30 09:16:17;;;;;;;3.72;1.15;;;;;;;;;;5007812;28;20246;-69
2023/04/30 09:18:43;;;;;;;4.65;1.40;;;;;;;;;;5023571;28;20045;-70
2023/04/30 09:21:10;;;;;;;6.72;1.45;;;;;;;;;;5023890;28;20108;-69
2023/04/30 09:23:36;;;;;;;5.13;1.50;;;;;;;;;;5020118;28;20032;-69
2023/04/30 09:26:02;;;;;;;4.45;1.42;;;;;;;;;;5006446;28;20040;-69
2023/04/30 09:28:28;;;;;;;10.05;3.22;;;;;;;;;;5005997;28;20036;-69
2023/04/30 09:30:58;;;;;;;8.25;2.95;;;;;;;;;;5021510;28;20059;-68
2023/04/30 09:33:24;;;;;;;7.53;2.40;;;;;;;;;;5007658;28;20033;-68
2023/04/30 09:35:50;;;;;;;9.07;1.95;;;;;;;;;;5024323;28;20099;-69
2023/04/30 09:38:30;;;;;;;4.78;1.58;;;;;;;;;;5028058;28;20131;-69
2023/04/30 09:40:58;;;;;;;4.70;1.42;;;;;;;;;;5025749;28;20035;-69
2023/04/30 09:43:24;;;;;;;4.57;1.38;;;;;;;;;;5021767;28;20519;-68
2023/04/30 09:45:51;;;;;;;4.95;1.60;;;;;;;;;;5003771;28;20190;-67
2023/04/30 09:48:17;;;;;;;5.05;1.63;;;;;;;;;;5023123;28;20023;-68
2023/04/30 09:50:44;;;;;;;4.65;1.33;;;;;;;;;;5028117;28;20048;-68
2023/04/30 09:53:13;;;;;;;4.45;1.50;;;;;;;;;;5006264;28;20880;-69
2023/04/30 09:55:42;;;;;;;3.88;1.40;;;;;;;;;;5006076;28;20134;-69
2023/04/30 09:58:08;;;;;;;3.10;1.15;;;;;;;;;;5024279;28;20024;-68
2023/04/30 10:00:34;;;;;;;4.25;1.33;;;;;;;;;;5022019;28;20029;-69
2023/04/30 10:03:07;;;;;;;4.45;1.30;;;;;;;;;;5010464;28;20037;-70
2023/04/30 10:05:36;;;;;;;3.22;1.00;;;;;;;;;;5025028;28;20033;-68
2023/04/30 10:08:03;;;;;;;3.20;0.82;;;;;;;;;;5022672;28;20426;-70
2023/04/30 10:10:31;;;;;;;2.72;0.77;;;;;;;;;;5018753;28;20471;-69
2023/04/30 10:13:00;;;;;;;3.60;1.15;;;;;;;;;;5025403;28;20572;-68
2023/04/30 10:15:38;;;;;;;5.13;1.10;;;;;;;;;;5025773;28;20055;-68
2023/04/30 10:18:06;;;;;;;3.38;1.10;;;;;;;;;;5021838;28;20379;-69
2023/04/30 10:20:36;;;;;;;5.85;1.90;;;;;;;;;;5019410;28;20048;-69
2023/04/30 10:23:02;;;;;;;4.38;1.20;;;;;;;;;;5025993;28;20021;-69
2023/04/30 10:25:28;;;;;;;3.45;1.00;;;;;;;;;;5019374;28;20708;-69
2023/04/30 10:27:55;;;;;;;3.33;1.30;;;;;;;;;;5019270;28;20586;-69
2023/04/30 10:30:22;;;;;;;5.15;1.80;;;;;;;;;;5001174;28;20041;-68
2023/04/30 10:32:56;;;;;;;5.80;2.25;;;;;;;;;;5002236;28;20127;-68
2023/04/30 10:35:26;;;;;;;4.88;1.83;;;;;;;;;;5014550;28;20052;-69
2023/04/30 10:37:53;;;;;;;7.03;1.52;;;;;;;;;;5012326;28;20281;-68
2023/04/30 10:40:19;;;;;;;8.13;2.92;;;;;;;;;;5021341;28;20545;-68
2023/04/30 10:42:49;;;;;;;6.95;2.40;;;;;;;;;;5015080;28;20763;-69
2023/04/30 10:45:16;;;;;;;6.07;2.05;;;;;;;;;;5017700;28;20029;-68
2023/04/30 10:47:44;;;;;;;6.85;2.22;;;;;;;;;;5017965;28;20033;-69
2023/04/30 10:50:10;;;;;;;5.80;1.80;;;;;;;;;;5017276;28;20058;-68
2023/04/30 10:52:39;;;;;;;7.68;1.85;;;;;;;;;;5017823;28;20157;-69
2023/04/30 10:55:07;;;;;;;5.72;1.75;;;;;;;;;;5024748;28;20024;-69
2023/04/30 10:57:40;;;;;;;5.78;2.00;;;;;;;;;;5019809;28;20740;-69
2023/04/30 11:00:06;;;;;;;5.40;1.80;;;;;;;;;;5018883;28;20029;-69
2023/04/30 11:02:40;;;;;;;5.50;1.30;;;;;;;;;;5013902;28;20116;-68
2023/04/30 11:05:06;;;;;;;4.20;1.15;;;;;;;;;;5003566;28;20037;-68
2023/04/30 11:07:33;;;;;;;4.13;1.05;;;;;;;;;;5001584;28;20029;-67
2023/04/30 11:10:00;;;;;;;4.65;1.60;;;;;;;;;;5020251;28;20025;-68
2023/04/30 11:12:29;;;;;;;4.50;1.38;;;;;;;;;;5022332;28;20036;-67
2023/04/30 11:15:15;;;;;;;4.55;1.60;;;;;;;;;;5015997;28;20021;-68
2023/04/30 11:17:44;;;;;;;5.00;1.23;;;;;;;;;;5018752;28;20597;-69
2023/04/30 11:20:12;;;;;;;4.40;1.40;;;;;;;;;;5021576;28;20025;-68
2023/04/30 11:22:39;;;;;;;5.07;2.00;;;;;;;;;;5014966;28;20525;-68
2023/04/30 11:25:08;;;;;;;7.50;2.20;;;;;;;;;;5018839;28;20080;-69
2023/04/30 11:27:35;;;;;;;7.05;2.30;;;;;;;;;;5017076;28;20090;-69
2023/04/30 11:30:03;;;;;;;8.40;3.10;;;;;;;;;;5022462;28;20420;-72
2023/04/30 11:32:36;;;;;;;8.85;3.35;;;;;;;;;;5003662;28;20415;-69
2023/04/30 11:35:03;;;;;;;6.53;2.30;;;;;;;;;;5025770;28;20032;-68
2023/04/30 11:37:34;;;;;;;7.22;2.20;;;;;;;;;;5017617;28;20029;-69
2023/04/30 11:40:02;;;;;;;5.25;1.50;;;;;;;;;;5019322;28;20035;-69
2023/04/30 11:42:30;;;;;;;5.20;1.85;;;;;;;;;;5020012;28;20459;-68
2023/04/30 11:45:02;;;;;;;9.15;3.40;;;;;;;;;;5008940;28;20031;-69
2023/04/30 11:47:38;;;;;;;7.55;2.90;;;;;;;;;;5018934;28;20425;-69
2023/04/30 11:50:04;;;;;;;6.30;1.50;;;;;;;;;;5025480;28;20063;-69
2023/04/30 11:52:30;;;;;;;8.65;1.65;;;;;;;;;;5022116;28;20140;-70
2023/04/30 11:54:56;;;;;;;6.28;1.90;;;;;;;;;;5023105;28;20035;-70
2023/04/30 11:57:22;;;;;;;6.88;2.05;;;;;;;;;;5008005;28;20033;-69
2023/04/30 11:59:49;;;;;;;5.03;1.52;;;;;;;;;;5011584;28;21192;-69
2023/04/30 12:02:16;;;;;;;3.65;1.30;;;;;;;;;;5028723;28;20473;-69
2023/04/30 12:04:47;;;;;;;5.50;1.40;;;;;;;;;;5023197;28;20036;-69
2023/04/30 12:07:13;;;;;;;9.85;6.22;;;;;;;;;;5031152;28;20397;-71
2023/04/30 12:09:55;;;;;;;12.65;8.25;;;;;;;;;;5028202;28;20097;-68
2023/04/30 12:12:31;;;;;;;8.70;3.65;;;;;;;;;;5028577;28;20113;-68
2023/04/30 12:14:58;;;;;;;9.52;4.45;;;;;;;;;;5028992;28;20577;-69
2023/04/30 12:17:34;;;;;;;7.50;3.17;;;;;;;;;;5030867;28;20028;-69
2023/04/30 12:20:00;;;;;;;8.52;2.95;;;;;;;;;;5025608;28;20146;-69
2023/04/30 12:22:27;;;;;;;8.13;3.80;;;;;;;;;;5022636;28;20029;-68
2023/04/30 12:24:55;;;;;;;8.40;3.70;;;;;;;;;;5024408;28;20021;-68
2023/04/30 12:27:21;;;;;;;11.80;7.43;;;;;;;;;;5023070;28;20462;-68
2023/04/30 12:29:49;;;;;;;7.70;2.80;;;;;;;;;;5023435;28;20060;-69
2023/04/30 12:32:18;;;;;;;7.15;2.30;;;;;;;;;;5030779;28;20102;-68
2023/04/30 12:34:45;;;;;;;4.03;1.50;;;;;;;;;;5006058;28;20025;-68
2023/04/30 12:37:15;;;;;;;5.35;1.58;;;;;;;;;;5014007;28;20134;-68
2023/04/30 12:39:41;;;;;;;6.00;1.98;;;;;;;;;;5026007;28;20674;-68
2023/04/30 12:42:07;;;;;;;5.22;1.80;;;;;;;;;;5025835;28;20063;-68
2023/04/30 12:44:41;;;;;;;7.47;3.55;;;;;;;;;;5008023;28;20021;-68
2023/04/30 12:47:08;;;;;;;21.55;16.13;;;;;;;;;;5023052;28;20037;-69
2023/04/30 12:49:35;;;;;;;11.60;7.20;;;;;;;;;;5026298;28;20040;-68
2023/04/30 12:52:06;;;;;;;10.82;6.40;;;;;;;;;;5023769;28;20056;-69
2023/04/30 12:54:33;;;;;;;8.63;3.78;;;;;;;;;;5020301;28;20052;-68
2023/04/30 12:57:02;;;;;;;6.80;2.72;;;;;;;;;;5001975;28;20472;-68
2023/04/30 12:59:29;;;;;;;8.93;3.22;;;;;;;;;;5023491;28;20336;-69
2023/04/30 13:01:55;;;;;;;6.63;2.33;;;;;;;;;;5022475;28;20044;-69
2023/04/30 13:04:21;;;;;;;7.85;2.53;;;;;;;;;;5020880;28;20156;-68
2023/04/30 13:06:48;;;;;;;7.05;2.55;;;;;;;;;;5007526;28;20036;-69
2023/04/30 13:09:14;;;;;;;9.75;4.35;;;;;;;;;;5011698;28;20036;-71
2023/04/30 13:11:41;;;;;;;6.20;2.30;;;;;;;;;;4998042;28;20024;-69
2023/04/30 13:14:09;;;;;;;6.18;2.28;;;;;;;;;;5016825;28;20044;-69
2023/04/30 13:16:35;;;;;;;5.25;1.88;;;;;;;;;;5010503;28;20391;-70
2023/04/30 13:19:01;;;;;;;6.40;2.15;;;;;;;;;;5018322;28;20226;-68
2023/04/30 13:21:27;;;;;;;7.80;2.80;;;;;;;;;;4993261;28;20111;-68
2023/04/30 13:23:54;;;;;;;8.50;3.67;;;;;;;;;;5012959;28;20029;-68
2023/04/30 13:26:21;;;;;;;5.18;1.95;;;;;;;;;;5019974;28;20083;-68
2023/04/30 13:28:48;;;;;;;5.03;1.60;;;;;;;;;;5015054;28;21616;-68
2023/04/30 13:31:14;;;;;;;5.15;1.58;;;;;;;;;;5017220;28;20324;-67
2023/04/30 13:33:40;;;;;;;5.35;1.20;;;;;;;;;;5016916;28;20033;-68
2023/04/30 13:36:06;;;;;;;4.40;1.20;;;;;;;;;;5004773;28;20568;-68
2023/04/30 13:38:32;;;;;;;4.35;1.20;;;;;;;;;;5013822;28;20134;-67
2023/04/30 13:40:59;;;;;;;4.15;1.20;;;;;;;;;;5017285;28;20249;-71
2023/04/30 13:43:25;;;;;;;5.18;1.60;;;;;;;;;;5000587;28;20086;-68
2023/04/30 13:45:51;;;;;;;3.25;0.90;;;;;;;;;;5000772;28;20548;-68
2023/04/30 13:48:17;;;;;;;8.13;1.17;;;;;;;;;;5019108;28;20719;-70
2023/04/30 13:50:43;;;;;;;5.13;1.17;;;;;;;;;;4999098;28;20033;-68
2023/04/30 13:53:09;;;;;;;2.03;0.68;;;;;;;;;;5018496;28;20033;-69
2023/04/30 13:55:35;;;;;;;2.92;0.90;;;;;;;;;;5014409;28;20039;-68
2023/04/30 13:58:02;;;;;;;2.60;0.98;;;;;;;;;;5015728;28;20060;-68
2023/04/30 14:00:28;;;;;;;3.55;1.00;;;;;;;;;;5009706;28;20202;-68
2023/04/30 14:02:54;;;;;;;3.90;1.13;;;;;;;;;;5014625;28;20040;-69
2023/04/30 14:05:21;;;;;;;4.22;1.20;;;;;;;;;;4994067;28;20043;-70
2023/04/30 14:07:47;;;;;;;2.05;0.70;;;;;;;;;;4997684;28;20933;-68
2023/04/30 14:10:13;;;;;;;4.35;1.20;;;;;;;;;;5013291;28;20070;-69
2023/04/30 14:12:39;;;;;;;2.47;0.80;;;;;;;;;;4996092;28;20044;-68
2023/04/30 14:15:07;;;;;;;2.95;0.80;;;;;;;;;;5010716;28;20021;-68
2023/04/30 14:17:33;;;;;;;2.40;0.70;;;;;;;;;;4990338;28;20033;-68
2023/04/30 14:19:59;;;;;;;3.88;1.35;;;;;;;;;;5007310;28;20057;-68
2023/04/30 14:22:25;;;;;;;5.15;1.55;;;;;;;;;;4991575;28;20040;-69
2023/04/30 14:24:52;;;;;;;6.40;2.22;;;;;;;;;;4988411;28;20028;-69
2023/04/30 14:27:18;;;;;;;6.35;2.33;;;;;;;;;;5007221;28;20029;-69
2023/04/30 14:29:44;;;;;;;2.63;1.10;;;;;;;;;;5003407;28;20025;-68
2023/04/30 14:32:15;;;;;;;3.75;1.27;;;;;;;;;;5002293;28;20514;-69
2023/04/30 14:34:41;;;;;;;4.20;1.38;;;;;;;;;;5004657;28;20028;-68
2023/04/30 14:37:07;;;;;;;5.38;1.65;;;;;;;;;;5001403;28;20554;-68
2023/04/30 14:39:34;;;;;;;3.65;1.10;;;;;;;;;;5016238;28;20078;-68
2023/04/30 14:42:00;;;;;;;4.53;0.82;;;;;;;;;;5012874;28;20064;-68
2023/04/30 14:44:26;;;;;;;3.28;0.90;;;;;;;;;;5013747;28;20526;-69